Time;durP1;ratioP1;P1;durP2;ratioP2;P2;SDS_P1;SDS_P2;PMS_P1;PMS_P2;Temp;Humidity;BMP_temperature;BMP_pressure;BME280_temperature;BME280_humidity;BME280_pressure;Samples;Min_cycle;Max_cycle;Signal;HPM_P1;HPM_P2
2022/08/25 00:01:17;;;;;;;33.92;5.03;;;;;;;19.84;65.88;101107.55;1627741;87;25772;-63
2022/08/25 00:03:44;;;;;;;25.23;5.15;;;;;;;19.82;65.70;101105.53;1637999;87;25857;-63
2022/08/25 00:06:12;;;;;;;30.85;5.60;;;;;;;19.81;65.97;101110.66;1646963;85;25795;-62
2022/08/25 00:08:41;;;;;;;29.32;5.42;;;;;;;19.80;65.90;101106.22;1647495;87;27595;-62
2022/08/25 00:11:16;;;;;;;27.77;5.20;;;;;;;19.78;65.54;101117.34;1641275;87;25514;-63
2022/08/25 00:13:48;;;;;;;25.50;4.83;;;;;;;19.75;65.75;101122.34;1646327;85;25881;-63
2022/08/25 00:16:17;;;;;;;30.92;4.67;;;;;;;19.69;65.88;101118.47;1624751;87;25795;-62
2022/08/25 00:18:49;;;;;;;32.35;5.47;;;;;;;19.62;66.42;101112.91;1618119;87;25836;-65
2022/08/25 00:21:16;;;;;;;23.25;4.87;;;;;;;19.60;66.07;101116.34;1624800;86;28532;-62
2022/08/25 00:23:45;;;;;;;35.28;5.90;;;;;;;19.58;66.18;101107.52;1668140;84;25792;-63
2022/08/25 00:26:14;;;;;;;29.57;5.40;;;;;;;19.59;66.83;101115.17;1645895;85;25768;-62
2022/08/25 00:28:43;;;;;;;28.90;5.00;;;;;;;19.53;67.02;101116.27;1599824;88;26346;-63
2022/08/25 00:31:15;;;;;;;23.85;4.22;;;;;;;19.47;66.52;101114.80;1645336;86;25796;-62
2022/08/25 00:33:44;;;;;;;33.08;5.30;;;;;;;19.48;66.50;101106.94;1663797;84;28416;-62
2022/08/25 00:36:11;;;;;;;29.70;5.10;;;;;;;19.47;67.34;101109.34;1622579;87;26164;-62
2022/08/25 00:38:41;;;;;;;32.85;6.15;;;;;;;19.38;66.85;101109.92;1630565;87;25759;-63
2022/08/25 00:41:10;;;;;;;24.37;4.67;;;;;;;19.37;66.57;101116.41;1657184;84;25720;-62
2022/08/25 00:43:54;;;;;;;26.73;5.45;;;;;;;19.37;66.75;101110.95;1602151;88;25824;-62
2022/08/25 00:46:26;;;;;;;32.30;5.78;;;;;;;19.34;66.76;101105.36;1626291;86;28327;-62
2022/08/25 00:48:58;;;;;;;32.45;5.85;;;;;;;19.29;66.59;101107.81;1623633;86;25776;-64
2022/08/25 00:51:43;;;;;;;31.20;5.62;;;;;;;19.23;66.90;101109.90;1661838;85;25813;-61
2022/08/25 00:54:15;;;;;;;28.07;5.30;;;;;;;19.20;66.58;101113.84;1615383;87;25727;-61
2022/08/25 00:56:44;;;;;;;25.68;4.83;;;;;;;19.21;66.62;101105.17;1655653;85;25748;-61
2022/08/25 00:59:12;;;;;;;36.08;6.70;;;;;;;19.20;67.00;101105.67;1657960;85;27630;-61
2022/08/25 01:01:39;;;;;;;31.20;5.15;;;;;;;19.10;66.67;101101.52;1620859;85;25812;-62
2022/08/25 01:04:07;;;;;;;31.17;5.33;;;;;;;19.07;66.82;101104.11;1640486;85;25704;-62
2022/08/25 01:06:38;;;;;;;13.55;5.87;;;;;;;19.04;66.68;101103.96;1633025;86;25981;-62
2022/08/25 01:09:06;;;;;;;32.90;5.05;;;;;;;19.04;66.66;101101.23;1632372;85;25534;-63
2022/08/25 01:11:35;;;;;;;27.27;4.15;;;;;;;19.04;66.70;101099.01;1624096;86;27502;-61
2022/08/25 01:14:05;;;;;;;21.68;5.65;;;;;;;19.03;66.96;101098.67;1660346;84;25944;-62
2022/08/25 01:16:35;;;;;;;31.68;4.92;;;;;;;18.97;68.17;101093.97;1622968;87;25864;-62
2022/08/25 01:19:04;;;;;;;26.48;4.30;;;;;;;18.89;67.73;101098.43;1633160;86;26287;-62
2022/08/25 01:21:40;;;;;;;21.85;4.92;;;;;;;18.82;69.07;101093.38;1648001;85;25757;-62
2022/08/25 01:24:12;;;;;;;25.52;4.80;;;;;;;18.73;68.44;101092.59;1665431;84;27478;-62
2022/08/25 01:26:39;;;;;;;16.27;4.75;;;;;;;18.70;68.10;101086.12;1624608;87;25866;-63
2022/08/25 01:29:21;;;;;;;21.02;5.15;;;;;;;18.69;69.35;101087.69;1633248;86;26482;-62
2022/08/25 01:32:00;;;;;;;34.40;6.25;;;;;;;18.59;68.76;101083.33;1659017;85;25830;-62
2022/08/25 01:34:32;;;;;;;20.85;5.12;;;;;;;18.56;68.90;101083.67;1638413;87;25812;-62
2022/08/25 01:37:00;;;;;;;22.55;5.70;;;;;;;18.53;69.67;101087.28;1632873;85;27700;-62
2022/08/25 01:39:30;;;;;;;27.95;5.53;;;;;;;18.45;69.77;101086.31;1640545;87;25734;-62
2022/08/25 01:42:11;;;;;;;43.95;6.15;;;;;;;18.41;69.32;101083.64;1621011;87;25844;-62
2022/08/25 01:44:42;;;;;;;27.87;5.25;;;;;;;18.45;69.12;101078.14;1615904;87;26114;-61
2022/08/25 01:47:10;;;;;;;26.85;5.35;;;;;;;18.49;69.01;101078.63;1637216;87;25504;-62
2022/08/25 01:49:37;;;;;;;43.28;5.65;;;;;;;18.50;69.04;101080.86;1632837;86;28368;-64
2022/08/25 01:52:24;;;;;;;33.00;5.55;;;;;;;18.50;68.89;101077.60;1641009;85;25547;-62
2022/08/25 01:54:51;;;;;;;48.52;6.92;;;;;;;18.48;69.21;101080.18;1632267;87;25796;-62
2022/08/25 01:57:18;;;;;;;42.83;6.60;;;;;;;18.45;68.90;101086.84;1646222;86;25748;-62
2022/08/25 01:59:46;;;;;;;28.47;5.97;;;;;;;18.45;68.80;101084.95;1633923;86;25738;-63
2022/08/25 02:02:13;;;;;;;33.28;5.75;;;;;;;18.46;68.83;101089.38;1634432;85;27488;-63
2022/08/25 02:04:40;;;;;;;25.20;5.20;;;;;;;18.42;69.25;101083.94;1646709;85;25559;-62
2022/08/25 02:07:09;;;;;;;47.20;5.95;;;;;;;18.41;69.57;101085.50;1647176;87;25827;-61
2022/08/25 02:09:37;;;;;;;29.25;6.35;;;;;;;18.35;68.99;101091.67;1645957;87;26099;-63
2022/08/25 02:12:04;;;;;;;39.67;6.42;;;;;;;18.34;68.88;101089.45;1614066;86;25833;-62
2022/08/25 02:14:31;;;;;;;34.98;5.58;;;;;;;18.35;69.16;101084.86;1633684;86;27453;-62
2022/08/25 02:16:58;;;;;;;41.70;6.12;;;;;;;18.34;69.06;101079.08;1624542;87;27210;-62
2022/08/25 02:19:25;;;;;;;30.65;6.35;;;;;;;18.31;68.75;101084.37;1620824;87;25728;-62
2022/08/25 02:21:53;;;;;;;30.92;6.22;;;;;;;18.31;68.93;101083.02;1627130;87;25741;-62
2022/08/25 02:24:20;;;;;;;37.08;6.05;;;;;;;18.28;69.34;101084.23;1633552;85;25772;-63
2022/08/25 02:26:48;;;;;;;39.00;6.80;;;;;;;18.28;68.69;101082.00;1624504;85;27563;-62
2022/08/25 02:29:15;;;;;;;43.25;7.70;;;;;;;18.28;68.59;101079.28;1641535;85;25927;-62
2022/08/25 02:31:43;;;;;;;38.95;6.95;;;;;;;18.29;68.51;101084.53;1642904;84;25793;-62
2022/08/25 02:34:11;;;;;;;34.40;6.45;;;;;;;18.29;68.67;101080.98;1651564;85;26476;-62
2022/08/25 02:36:38;;;;;;;30.32;6.45;;;;;;;18.32;68.40;101079.77;1605316;88;25819;-62
2022/08/25 02:39:09;;;;;;;23.00;6.40;;;;;;;18.32;68.24;101086.58;1609258;89;28311;-62
2022/08/25 02:41:37;;;;;;;34.92;6.58;;;;;;;18.30;68.24;101086.77;1637139;85;26052;-61
2022/08/25 02:44:06;;;;;;;42.50;7.67;;;;;;;18.32;68.34;101083.35;1649830;85;25847;-62
2022/08/25 02:46:35;;;;;;;38.80;7.08;;;;;;;18.35;68.37;101088.95;1605556;88;26253;-61
2022/08/25 02:49:03;;;;;;;37.80;7.55;;;;;;;18.32;68.33;101086.08;1609195;87;25780;-62
2022/08/25 02:51:30;;;;;;;46.58;6.50;;;;;;;18.34;68.30;101096.78;1639368;87;27661;-61
2022/08/25 02:54:01;;;;;;;33.38;6.08;;;;;;;18.32;68.34;101098.34;1645636;87;25807;-62
2022/08/25 02:56:29;;;;;;;31.97;6.00;;;;;;;18.27;69.12;101102.95;1635235;85;25811;-62
2022/08/25 02:58:58;;;;;;;34.45;6.62;;;;;;;18.26;68.85;101101.75;1647201;85;25728;-62
2022/08/25 03:01:25;;;;;;;38.70;5.75;;;;;;;18.29;68.71;101097.32;1646572;87;25795;-61
2022/08/25 03:03:52;;;;;;;24.70;6.20;;;;;;;18.29;68.79;101103.60;1623897;87;27695;-62
2022/08/25 03:06:24;;;;;;;35.05;6.92;;;;;;;18.32;68.83;101106.50;1628772;87;25812;-62
2022/08/25 03:08:52;;;;;;;33.02;6.42;;;;;;;18.32;68.99;101104.28;1647126;86;25819;-62
2022/08/25 03:11:20;;;;;;;46.53;8.33;;;;;;;18.28;68.56;101109.23;1647175;86;25740;-63
2022/08/25 03:13:50;;;;;;;31.25;5.60;;;;;;;18.29;68.66;101106.32;1634636;85;25767;-62
2022/08/25 03:16:19;;;;;;;31.40;5.95;;;;;;;18.29;68.52;101105.48;1641879;85;27507;-61
2022/08/25 03:18:46;;;;;;;25.80;5.65;;;;;;;18.29;68.52;101115.02;1646583;85;25936;-62
2022/08/25 03:21:13;;;;;;;38.33;5.95;;;;;;;18.28;68.58;101110.59;1616406;87;25797;-62
2022/08/25 03:23:42;;;;;;;29.27;7.33;;;;;;;18.24;68.82;101119.64;1636214;86;25849;-62
2022/08/25 03:28:54;;;;;;;43.30;7.87;;;;;;;18.22;68.26;101123.58;1614911;87;27649;-62
2022/08/25 03:31:29;;;;;;;38.58;6.62;;;;;;;18.22;68.27;101122.22;1672398;84;25477;-62
2022/08/25 03:33:53;;;;;;;26.33;6.72;;;;;;;18.20;68.21;101133.27;1620398;87;25828;-62
2022/08/25 03:36:20;;;;;;;30.32;6.75;;;;;;;18.18;68.49;101127.17;1627015;87;26251;-62
2022/08/25 03:38:47;;;;;;;36.45;7.00;;;;;;;18.12;68.20;101131.45;1660465;85;25768;-62
2022/08/25 03:41:22;;;;;;;31.73;7.10;;;;;;;18.09;68.03;101133.16;1670660;85;27481;-62
2022/08/25 03:43:50;;;;;;;102.45;11.12;;;;;;;18.06;67.90;101133.53;1645917;85;25734;-62
2022/08/25 03:46:24;;;;;;;30.45;6.00;;;;;;;18.05;67.99;101134.55;1636331;87;25744;-62
2022/08/25 03:48:52;;;;;;;30.60;5.62;;;;;;;18.04;68.18;101130.12;1666909;85;25799;-62
2022/08/25 03:51:23;;;;;;;22.02;7.08;;;;;;;18.02;68.02;101132.70;1667700;84;25782;-63
2022/08/25 03:53:52;;;;;;;28.12;5.97;;;;;;;18.03;68.34;101136.59;1649190;85;27506;-62
2022/08/25 03:56:19;;;;;;;37.05;6.70;;;;;;;18.03;68.49;101140.67;1624450;85;25861;-63
2022/08/25 03:58:46;;;;;;;34.92;6.50;;;;;;;18.06;68.58;101136.74;1654100;85;25653;-62
2022/08/25 04:01:15;;;;;;;28.67;6.08;;;;;;;18.10;68.49;101146.27;1644163;87;25819;-63
2022/08/25 04:03:43;;;;;;;45.70;6.92;;;;;;;18.07;67.94;101145.25;1640360;85;25792;-62
2022/08/25 04:06:10;;;;;;;34.18;7.03;;;;;;;18.04;67.63;101138.29;1635923;85;27595;-64
2022/08/25 04:08:38;;;;;;;48.23;8.15;;;;;;;18.09;67.40;101148.66;1628679;87;25822;-63
2022/08/25 04:11:13;;;;;;;46.13;7.58;;;;;;;18.14;67.27;101139.43;1644816;85;25775;-62
2022/08/25 04:13:41;;;;;;;37.03;7.00;;;;;;;18.21;66.90;101143.66;1639941;85;25749;-63
2022/08/25 04:16:18;;;;;;;45.28;8.05;;;;;;;18.25;66.44;101144.98;1649987;85;25661;-62
2022/08/25 04:18:46;;;;;;;53.33;7.87;;;;;;;18.24;66.10;101135.98;1649268;85;26813;-64
2022/08/25 04:21:14;;;;;;;51.70;7.80;;;;;;;18.28;65.93;101144.14;1647805;86;25831;-63
2022/08/25 04:23:44;;;;;;;48.60;8.00;;;;;;;18.34;65.71;101145.28;1649623;85;25787;-63
2022/08/25 04:26:26;;;;;;;57.78;10.15;;;;;;;18.38;65.19;101143.91;1667556;85;26160;-63
2022/08/25 04:28:55;;;;;;;39.05;8.00;;;;;;;18.40;65.05;101146.44;1641123;86;25534;-62
2022/08/25 04:31:22;;;;;;;42.75;7.62;;;;;;;18.42;64.72;101146.59;1647321;85;27696;-62
2022/08/25 04:33:50;;;;;;;35.35;8.53;;;;;;;18.45;64.27;101146.77;1658430;85;25830;-61
2022/08/25 04:36:19;;;;;;;42.20;7.12;;;;;;;18.46;64.09;101141.13;1640487;86;25861;-62
2022/08/25 04:38:47;;;;;;;39.00;8.20;;;;;;;18.47;63.64;101141.97;1640937;85;26243;-61
2022/08/25 04:41:18;;;;;;;56.02;7.90;;;;;;;18.49;63.79;101139.92;1628353;85;25491;-62
2022/08/25 04:43:45;;;;;;;40.52;7.92;;;;;;;18.55;63.84;101140.59;1660085;85;27614;-63
2022/08/25 04:46:19;;;;;;;34.58;8.48;;;;;;;18.61;63.84;101140.35;1642696;85;25762;-62
2022/08/25 04:48:46;;;;;;;39.83;10.40;;;;;;;18.63;63.50;101143.75;1625627;87;25812;-62
2022/08/25 04:51:18;;;;;;;63.02;21.27;;;;;;;18.64;63.19;101143.25;1624291;87;25922;-62
2022/08/25 04:53:46;;;;;;;40.48;8.58;;;;;;;18.66;62.76;101142.03;1643860;85;25804;-62
2022/08/25 04:56:15;;;;;;;36.05;7.25;;;;;;;18.68;62.59;101139.13;1649245;87;28547;-62
2022/08/25 04:58:45;;;;;;;46.85;12.70;;;;;;;18.69;61.82;101136.20;1645670;87;25827;-62
2022/08/25 05:01:17;;;;;;;39.30;10.20;;;;;;;18.70;61.58;101135.70;1632176;85;25859;-61
2022/08/25 05:03:47;;;;;;;39.35;9.75;;;;;;;18.71;61.58;101135.52;1623801;87;26458;-62
2022/08/25 05:06:14;;;;;;;40.00;7.83;;;;;;;18.76;61.73;101136.34;1649720;85;25756;-61
2022/08/25 05:08:41;;;;;;;28.83;9.03;;;;;;;18.81;61.11;101140.75;1647734;87;27489;-62
2022/08/25 05:11:13;;;;;;;32.85;7.47;;;;;;;18.85;60.80;101132.52;1643368;85;25814;-62
2022/08/25 05:13:41;;;;;;;37.70;7.00;;;;;;;18.87;60.13;101136.45;1669493;85;26389;-61
2022/08/25 05:16:08;;;;;;;29.10;6.60;;;;;;;18.91;59.80;101135.04;1634798;85;26364;-61
2022/08/25 05:18:35;;;;;;;33.58;9.20;;;;;;;18.95;59.77;101128.73;1659143;85;25793;-62
2022/08/25 05:21:10;;;;;;;33.70;7.53;;;;;;;19.02;59.87;101136.50;1644405;87;27487;-62
2022/08/25 05:23:38;;;;;;;36.73;5.97;;;;;;;19.08;59.78;101139.36;1642268;85;25816;-61
2022/08/25 05:26:09;;;;;;;29.00;6.08;;;;;;;19.14;59.36;101141.87;1670507;85;25788;-61
2022/08/25 05:28:41;;;;;;;31.27;6.10;;;;;;;19.16;58.65;101132.99;1648776;85;25829;-61
2022/08/25 05:31:12;;;;;;;26.23;7.25;;;;;;;19.20;58.42;101133.47;1636026;87;25768;-60
2022/08/25 05:33:40;;;;;;;28.73;6.40;;;;;;;19.27;58.57;101134.42;1649811;85;28310;-61
2022/08/25 05:36:09;;;;;;;22.77;6.08;;;;;;;19.35;58.27;101126.16;1648408;85;25837;-61
2022/08/25 05:38:38;;;;;;;31.73;6.70;;;;;;;19.39;57.27;101131.58;1648330;85;25787;-61
2022/08/25 05:41:09;;;;;;;18.00;5.90;;;;;;;19.42;56.84;101133.09;1645608;85;25854;-63
2022/08/25 05:43:38;;;;;;;24.52;5.87;;;;;;;19.47;56.85;101125.70;1626713;87;25816;-62
2022/08/25 05:46:07;;;;;;;17.35;5.35;;;;;;;19.51;56.68;101123.78;1636639;86;27443;-62
2022/08/25 05:48:34;;;;;;;39.27;5.60;;;;;;;19.58;56.50;101126.62;1623243;87;25863;-62
2022/08/25 05:51:05;;;;;;;25.08;6.08;;;;;;;19.64;56.67;101124.50;1633562;86;25735;-62
2022/08/25 05:53:34;;;;;;;18.67;5.10;;;;;;;19.70;55.88;101121.00;1623062;88;25834;-62
2022/08/25 05:56:02;;;;;;;26.62;6.75;;;;;;;19.81;55.56;101122.94;1630165;85;25840;-62
2022/08/25 05:58:30;;;;;;;27.77;6.35;;;;;;;19.86;55.11;101124.60;1657027;84;27571;-61
2022/08/25 06:03:30;;;;;;;;;;;;;;;19.97;55.00;101115.11;1607210;87;26428;-61
2022/08/25 06:06:06;;;;;;;32.17;6.58;;;;;;;20.06;54.94;101128.13;1623592;87;26246;-62
2022/08/25 06:08:33;;;;;;;18.82;5.67;;;;;;;20.10;54.66;101130.28;1647331;85;25654;-62
2022/08/25 06:11:00;;;;;;;29.10;6.17;;;;;;;20.15;54.52;101120.14;1644787;87;28170;-62
2022/08/25 06:13:27;;;;;;;28.52;5.83;;;;;;;20.21;54.63;101120.77;1644929;85;25754;-61
2022/08/25 06:15:59;;;;;;;23.30;5.25;;;;;;;20.28;54.96;101124.42;1649711;85;25757;-62
2022/08/25 06:18:27;;;;;;;29.82;5.97;;;;;;;20.37;54.76;101116.11;1648670;85;25773;-62
2022/08/25 06:20:54;;;;;;;28.42;5.95;;;;;;;20.44;54.82;101117.86;1639269;87;25792;-62
2022/08/25 06:23:20;;;;;;;28.45;6.08;;;;;;;20.51;54.87;101122.56;1651100;85;27575;-62
2022/08/25 06:25:55;;;;;;;32.38;5.20;;;;;;;20.60;54.51;101120.04;1676590;84;26116;-62
2022/08/25 06:28:22;;;;;;;30.27;5.97;;;;;;;20.66;54.36;101123.35;1640721;85;25830;-62
2022/08/25 06:30:48;;;;;;;25.12;5.50;;;;;;;20.75;53.79;101122.75;1663105;84;26940;-62
2022/08/25 06:33:15;;;;;;;15.75;5.25;;;;;;;20.83;53.66;101119.88;1654852;85;26660;-62
2022/08/25 06:35:44;;;;;;;21.12;5.25;;;;;;;20.90;53.25;101120.78;1641393;85;27493;-62
2022/08/25 06:38:11;;;;;;;26.02;5.78;;;;;;;21.00;52.69;101125.08;1677475;84;26122;-62
2022/08/25 06:40:38;;;;;;;18.00;5.35;;;;;;;21.10;52.66;101117.38;1642589;85;25551;-62
2022/08/25 06:43:07;;;;;;;22.20;4.62;;;;;;;21.21;52.81;101126.39;1622765;85;25492;-62
2022/08/25 06:45:34;;;;;;;25.17;5.10;;;;;;;21.32;51.97;101116.82;1634579;86;25837;-62
2022/08/25 06:48:01;;;;;;;14.50;4.17;;;;;;;21.44;51.70;101114.37;1634634;86;27648;-61
2022/08/25 06:50:28;;;;;;;23.35;3.37;;;;;;;21.55;51.63;101113.82;1651574;84;26724;-62
2022/08/25 06:52:55;;;;;;;20.55;4.10;;;;;;;21.67;50.16;101119.61;1608064;87;25713;-62
2022/08/25 06:55:23;;;;;;;19.85;3.80;;;;;;;21.79;50.60;101117.64;1619074;86;25804;-63
2022/08/25 06:57:53;;;;;;;23.15;4.05;;;;;;;21.91;50.29;101116.03;1642702;85;25870;-62
2022/08/25 07:00:22;;;;;;;13.38;3.35;;;;;;;22.00;50.16;101115.35;1639541;85;28189;-62
2022/08/25 07:02:49;;;;;;;20.68;4.20;;;;;;;22.10;50.14;101118.53;1659566;84;25803;-63
2022/08/25 07:05:16;;;;;;;24.37;3.47;;;;;;;22.18;49.44;101114.27;1650570;85;25778;-62
2022/08/25 07:07:45;;;;;;;14.55;3.42;;;;;;;22.31;48.43;101113.47;1623286;87;25914;-62
2022/08/25 07:10:12;;;;;;;18.87;3.08;;;;;;;22.42;48.56;101120.27;1641463;85;25764;-62
2022/08/25 07:12:40;;;;;;;16.85;3.05;;;;;;;22.54;47.05;101115.56;1645960;85;28183;-62
2022/08/25 07:15:08;;;;;;;12.75;2.62;;;;;;;22.64;45.91;101114.09;1645158;86;25884;-63
2022/08/25 07:17:35;;;;;;;15.28;3.47;;;;;;;22.75;45.13;101111.26;1642108;85;26808;-62
2022/08/25 07:20:04;;;;;;;25.43;3.90;;;;;;;22.88;44.60;101109.59;1663319;85;25836;-62
2022/08/25 07:22:32;;;;;;;28.55;3.20;;;;;;;23.00;44.10;101101.03;1645862;85;25732;-62
2022/08/25 07:24:59;;;;;;;21.20;3.62;;;;;;;23.13;43.75;101103.79;1640987;86;27499;-63
2022/08/25 07:27:26;;;;;;;23.38;3.20;;;;;;;23.29;43.37;101103.92;1622108;87;25897;-63
2022/08/25 07:29:53;;;;;;;16.57;3.30;;;;;;;23.41;43.22;101100.51;1635043;87;25755;-63
2022/08/25 07:32:20;;;;;;;18.27;2.90;;;;;;;23.49;42.41;101095.33;1631947;85;25767;-64
2022/08/25 07:37:32;;;;;;;8.83;3.00;;;;;;;23.73;41.66;101088.30;1619276;87;27576;-63
2022/08/25 07:40:04;;;;;;;14.38;2.80;;;;;;;23.86;41.41;101086.86;1630209;87;25777;-63
2022/08/25 07:42:31;;;;;;;19.42;3.77;;;;;;;23.95;40.78;101077.03;1662274;84;26258;-62
2022/08/25 07:44:58;;;;;;;17.23;3.10;;;;;;;24.05;41.03;101077.41;1674761;85;25712;-62
2022/08/25 07:47:25;;;;;;;14.85;3.10;;;;;;;24.15;40.96;101075.59;1655650;84;25781;-62
2022/08/25 07:49:51;;;;;;;14.25;3.67;;;;;;;24.29;40.52;101071.70;1618619;88;28283;-63
2022/08/25 07:52:19;;;;;;;15.20;3.45;;;;;;;24.43;40.81;101068.33;1621464;86;25720;-62
2022/08/25 07:54:46;;;;;;;15.30;3.52;;;;;;;24.52;40.12;101061.50;1674838;85;25708;-63
2022/08/25 07:57:14;;;;;;;15.83;3.58;;;;;;;24.64;39.54;101050.63;1663489;84;25498;-62
2022/08/25 07:59:42;;;;;;;13.88;3.17;;;;;;;24.77;40.08;101057.95;1612802;88;25785;-63
2022/08/25 08:02:12;;;;;;;17.85;3.92;;;;;;;24.90;39.55;101050.13;1649978;84;27495;-63
2022/08/25 08:04:39;;;;;;;17.12;3.02;;;;;;;25.03;39.92;101046.95;1669644;85;26658;-62
2022/08/25 08:07:06;;;;;;;19.87;3.90;;;;;;;25.14;39.89;101048.42;1636193;85;25551;-62
2022/08/25 08:09:34;;;;;;;27.13;3.02;;;;;;;25.24;39.10;101045.69;1616162;87;26040;-62
2022/08/25 08:12:00;;;;;;;16.50;2.70;;;;;;;25.37;38.96;101046.08;1622864;86;25785;-62
2022/08/25 08:14:27;;;;;;;13.35;3.12;;;;;;;25.48;39.09;101042.60;1669190;85;27324;-62
2022/08/25 08:16:54;;;;;;;21.20;3.40;;;;;;;25.61;39.12;101042.43;1634854;87;25799;-63
2022/08/25 08:19:22;;;;;;;9.40;3.22;;;;;;;25.78;38.36;101052.30;1599341;88;25565;-63
2022/08/25 08:21:49;;;;;;;10.00;2.80;;;;;;;25.91;39.07;101047.16;1595553;88;25875;-63
2022/08/25 08:24:16;;;;;;;15.40;3.17;;;;;;;26.07;38.98;101039.31;1596256;88;25863;-62
2022/08/25 08:26:44;;;;;;;26.97;4.12;;;;;;;26.21;39.21;101038.62;1630471;86;27500;-62
2022/08/25 08:29:11;;;;;;;19.90;3.75;;;;;;;26.39;38.50;101039.94;1674588;84;25862;-62
2022/08/25 08:31:38;;;;;;;20.80;3.80;;;;;;;26.58;37.71;101036.27;1674773;84;25803;-62
2022/08/25 08:34:06;;;;;;;13.48;4.00;;;;;;;26.74;37.46;101024.54;1626497;87;25840;-62
2022/08/25 08:36:34;;;;;;;21.12;3.10;;;;;;;26.90;37.38;101028.52;1624000;86;25790;-62
2022/08/25 08:39:01;;;;;;;19.12;3.55;;;;;;;27.07;37.42;101027.27;1674511;84;28295;-62
2022/08/25 08:44:53;;;;;;;19.55;3.35;;;;;;;27.44;36.84;101017.88;1643291;85;25513;-62
2022/08/25 08:48:01;;;;;;;9.50;3.17;;;;;;;27.67;36.85;101013.40;1655317;85;26430;-63
2022/08/25 08:50:48;;;;;;;19.20;3.98;;;;;;;27.86;36.52;101007.13;1662128;86;25768;-64
2022/08/25 08:53:26;;;;;;;21.90;3.15;;;;;;;28.11;35.93;101009.59;1674716;84;27482;-63
2022/08/25 08:56:01;;;;;;;23.07;3.42;;;;;;;28.33;35.54;101006.94;1624854;87;25706;-62
2022/08/25 08:58:48;;;;;;;13.48;3.05;;;;;;;28.56;35.67;101013.40;1633223;85;25817;-62
2022/08/25 09:01:23;;;;;;;15.98;3.90;;;;;;;28.77;34.69;101006.85;1626507;87;25815;-62
2022/08/25 09:04:14;;;;;;;11.75;3.05;;;;;;;29.02;33.92;101002.25;1674859;84;25733;-63
2022/08/25 09:06:46;;;;;;;21.05;3.50;;;;;;;29.30;33.12;101003.20;1631551;85;27564;-63
2022/08/25 09:09:25;;;;;;;24.97;2.70;;;;;;;29.59;31.74;100995.56;1629686;87;25878;-62
2022/08/25 09:12:06;;;;;;;12.53;2.22;;;;;;;29.84;32.49;100992.78;1637908;85;26352;-62
2022/08/25 09:15:09;;;;;;;22.42;2.83;;;;;;;30.20;32.32;100982.65;1638822;87;25888;-61
2022/08/25 09:17:55;;;;;;;17.65;2.80;;;;;;;30.43;30.40;100985.06;1647262;87;26358;-63
2022/08/25 09:20:42;;;;;;;18.20;2.98;;;;;;;30.75;28.21;100969.51;1647285;85;27501;-63
2022/08/25 09:23:35;;;;;;;35.95;3.42;;;;;;;31.00;28.60;100973.01;1649685;85;26471;-63
2022/08/25 09:26:11;;;;;;;21.30;2.92;;;;;;;31.28;28.10;100970.11;1674554;84;25807;-62
2022/08/25 09:28:54;;;;;;;23.30;3.58;;;;;;;31.68;28.07;100966.67;1674693;84;26475;-62
2022/08/25 09:31:34;;;;;;;21.37;2.75;;;;;;;32.15;27.82;100962.01;1674737;85;27326;-63
2022/08/25 09:34:11;;;;;;;18.82;2.85;;;;;;;32.67;25.53;100957.01;1674582;84;27111;-62
2022/08/25 09:36:38;;;;;;;24.63;2.77;;;;;;;33.26;23.66;100952.70;1674551;84;25771;-63
2022/08/25 09:39:06;;;;;;;28.25;3.98;;;;;;;33.87;23.47;100949.34;1674440;84;25768;-64
2022/08/25 09:41:55;;;;;;;22.67;3.20;;;;;;;34.43;23.51;100948.08;1674696;84;25716;-64
2022/08/25 09:44:26;;;;;;;33.08;3.50;;;;;;;34.89;23.02;100937.56;1674528;84;25862;-64
2022/08/25 09:47:23;;;;;;;22.37;3.70;;;;;;;35.48;21.92;100934.08;1674523;84;27546;-63
2022/08/25 09:50:03;;;;;;;21.85;2.70;;;;;;;35.93;22.03;100925.89;1674420;84;25701;-63
2022/08/25 09:52:36;;;;;;;15.72;3.20;;;;;;;36.37;20.29;100925.16;1674502;84;25856;-64
2022/08/25 09:55:14;;;;;;;18.00;2.30;;;;;;;36.61;21.26;100915.23;1674450;84;26104;-63
2022/08/25 09:57:47;;;;;;;23.52;2.60;;;;;;;37.03;19.47;100912.47;1674691;85;25649;-62
2022/08/25 10:00:29;;;;;;;24.65;2.35;;;;;;;37.37;19.50;100914.78;1674612;84;27624;-63
2022/08/25 10:03:07;;;;;;;13.60;2.00;;;;;;;37.68;18.46;100909.06;1674545;84;25856;-64
2022/08/25 10:05:56;;;;;;;19.75;3.05;;;;;;;38.04;17.67;100908.20;1652955;85;25847;-64
2022/08/25 10:08:47;;;;;;;14.58;1.50;;;;;;;37.99;18.82;100907.77;1674840;84;25748;-63
2022/08/25 10:11:40;;;;;;;19.25;2.52;;;;;;;38.20;17.73;100899.63;1644477;85;26102;-61
2022/08/25 10:14:35;;;;;;;19.37;2.62;;;;;;;38.63;17.07;100888.39;1667767;86;27480;-61
2022/08/25 10:17:28;;;;;;;20.77;2.50;;;;;;;38.71;17.95;100884.53;1667890;85;25788;-64
2022/08/25 10:20:16;;;;;;;15.60;1.95;;;;;;;39.05;16.57;100873.15;1663033;84;25748;-64
2022/08/25 10:22:44;;;;;;;18.50;1.90;;;;;;;39.36;16.28;100870.23;1657698;85;25804;-63
2022/08/25 10:25:15;;;;;;;20.05;1.80;;;;;;;39.57;16.35;100863.40;1665723;86;26069;-63
2022/08/25 10:28:05;;;;;;;26.70;2.42;;;;;;;39.84;15.54;100861.41;1668046;84;27692;-64
2022/08/25 10:30:57;;;;;;;11.10;1.50;;;;;;;40.09;16.47;100860.27;1667602;84;25956;-63
2022/08/25 10:33:35;;;;;;;23.67;1.90;;;;;;;40.76;15.62;100860.70;1667819;86;25750;-64
2022/08/25 10:36:13;;;;;;;12.55;1.45;;;;;;;41.14;14.40;100862.65;1668144;84;25759;-64
2022/08/25 10:38:48;;;;;;;20.60;2.77;;;;;;;41.30;14.92;100860.61;1667801;85;25969;-63
2022/08/25 10:41:42;;;;;;;16.05;1.80;;;;;;;41.65;15.54;100860.94;1667684;86;27654;-64
2022/08/25 10:47:49;;;;;;;11.30;2.47;;;;;;;42.48;13.86;100861.05;1667636;84;26443;-63
2022/08/25 10:50:33;;;;;;;12.47;1.85;;;;;;;42.81;14.21;100855.30;1667613;84;25741;-63
2022/08/25 10:53:28;;;;;;;16.15;2.17;;;;;;;43.13;14.57;100851.23;1667687;84;25818;-64
2022/08/25 10:56:20;;;;;;;14.38;2.10;;;;;;;43.19;13.49;100853.25;1667702;84;27493;-63
2022/08/25 10:59:05;;;;;;;26.12;2.37;;;;;;;43.35;13.78;100847.67;1668032;86;25849;-64
2022/08/25 11:02:14;;;;;;;28.38;2.75;;;;;;;43.58;13.41;100843.71;1667526;84;25815;-63
2022/08/25 11:04:56;;;;;;;21.20;2.52;;;;;;;43.54;13.25;100844.77;1668136;84;25761;-63
2022/08/25 11:07:47;;;;;;;13.98;1.65;;;;;;;43.54;12.97;100838.50;1667314;84;53997;-63
2022/08/25 11:10:21;;;;;;;15.83;2.02;;;;;;;43.48;12.79;100841.36;1667750;85;27504;-63
2022/08/25 11:13:02;;;;;;;12.65;1.55;;;;;;;43.46;12.97;100834.66;1667586;86;25986;-63
2022/08/25 11:15:55;;;;;;;16.40;1.62;;;;;;;43.38;12.89;100830.55;1667792;86;25592;-64
2022/08/25 11:18:25;;;;;;;12.45;1.77;;;;;;;43.69;13.51;100824.78;1667735;85;25847;-64
2022/08/25 11:21:09;;;;;;;16.60;1.85;;;;;;;44.01;12.64;100810.09;1667717;84;25822;-64
2022/08/25 11:23:44;;;;;;;16.77;1.60;;;;;;;43.96;12.16;100808.09;1655010;85;27528;-62
2022/08/25 11:26:16;;;;;;;14.58;1.65;;;;;;;43.76;12.03;100803.73;1667702;84;25716;-62
2022/08/25 11:29:07;;;;;;;18.92;1.62;;;;;;;43.51;12.96;100805.83;1668173;85;25780;-62
2022/08/25 11:31:44;;;;;;;13.75;2.20;;;;;;;43.24;13.23;100803.48;1668532;84;25801;-63
2022/08/25 11:34:14;;;;;;;10.20;1.77;;;;;;;43.44;13.05;100793.70;1668144;84;25997;-63
2022/08/25 11:36:46;;;;;;;11.20;1.75;;;;;;;43.93;12.96;100788.41;1667500;84;28304;-63
2022/08/25 11:39:39;;;;;;;15.55;1.95;;;;;;;44.44;12.20;100782.61;1664198;85;25466;-63
2022/08/25 11:42:29;;;;;;;17.87;1.87;;;;;;;44.55;12.18;100789.37;1667766;84;25808;-62
2022/08/25 11:45:21;;;;;;;13.70;1.82;;;;;;;44.57;11.93;100775.61;1648038;86;25797;-63
2022/08/25 11:48:16;;;;;;;6.05;1.82;;;;;;;44.63;11.38;100768.48;1639745;85;25825;-63
2022/08/25 11:51:10;;;;;;;23.00;1.95;;;;;;;44.77;11.54;100766.56;1628795;87;29688;-64
2022/08/25 11:53:41;;;;;;;9.88;1.60;;;;;;;45.01;11.67;100758.37;1640507;86;25770;-63
2022/08/25 11:56:35;;;;;;;17.57;1.95;;;;;;;44.69;11.89;100766.99;1640715;86;25833;-63